Time;durP1;ratioP1;P1;durP2;ratioP2;P2;SDS_P1;SDS_P2;PMS_P1;PMS_P2;Temp;Humidity;BMP_temperature;BMP_pressure;BME280_temperature;BME280_humidity;BME280_pressure;Samples;Min_cycle;Max_cycle;Signal;HPM_P1;HPM_P2
2021/12/30 00:00:45;;;;;;;31.83;14.20;;;18.90;83.90;;;;;;5098432;28;20022;-37
2021/12/30 00:03:11;;;;;;;30.58;13.60;;;18.90;83.70;;;;;;5073118;28;20089;-42
2021/12/30 00:05:52;;;;;;;30.25;14.18;;;18.90;83.60;;;;;;5100395;28;20020;-37
2021/12/30 00:08:18;;;;;;;35.08;14.73;;;18.90;83.50;;;;;;5101920;28;20631;-41
2021/12/30 00:10:43;;;;;;;33.13;14.10;;;18.90;83.50;;;;;;5100086;28;20127;-43
2021/12/30 00:13:09;;;;;;;27.15;13.15;;;18.90;83.40;;;;;;5088164;28;20097;-42
2021/12/30 00:15:36;;;;;;;31.42;14.52;;;18.90;83.40;;;;;;5092810;28;20540;-38
2021/12/30 00:18:03;;;;;;;35.10;14.40;;;18.90;83.40;;;;;;5091752;28;20718;-41
2021/12/30 00:20:29;;;;;;;35.72;13.95;;;18.90;83.30;;;;;;5097072;28;20038;-41
2021/12/30 00:22:54;;;;;;;31.77;13.73;;;18.80;83.30;;;;;;5091697;28;20075;-40
2021/12/30 00:26:12;;;;;;;35.97;13.75;;;18.90;83.40;;;;;;5098261;28;20039;-39
2021/12/30 00:28:28;;;;;;;29.83;14.43;;;18.80;83.30;;;;;;5086480;28;20374;-41
2021/12/30 00:30:54;;;;;;;27.75;13.43;;;18.80;83.20;;;;;;5102439;28;20020;-42
2021/12/30 00:33:21;;;;;;;30.45;12.80;;;18.80;83.20;;;;;;5094836;28;20024;-41
2021/12/30 00:35:47;;;;;;;35.88;13.70;;;18.80;83.10;;;;;;5097242;28;20016;-38
2021/12/30 00:38:14;;;;;;;31.85;13.02;;;18.70;83.10;;;;;;5094805;28;20020;-40
2021/12/30 00:40:40;;;;;;;31.35;12.82;;;18.70;83.50;;;;;;5083230;28;20032;-40
2021/12/30 00:43:07;;;;;;;30.58;11.93;;;18.70;83.40;;;;;;5095932;28;20161;-40
2021/12/30 00:45:34;;;;;;;29.15;13.13;;;18.70;83.40;;;;;;5078820;28;20369;-38
2021/12/30 00:48:00;;;;;;;33.70;13.60;;;18.70;83.10;;;;;;5098373;28;20027;-41
2021/12/30 00:50:27;;;;;;;29.83;12.77;;;18.70;83.00;;;;;;5090614;28;20028;-37
2021/12/30 00:52:54;;;;;;;32.20;12.95;;;18.70;83.00;;;;;;5100607;28;20101;-38
2021/12/30 00:55:20;;;;;;;28.58;12.57;;;18.70;83.40;;;;;;5089865;28;20503;-53
2021/12/30 00:57:46;;;;;;;28.25;12.32;;;18.70;83.20;;;;;;5099489;28;20044;-40
2021/12/30 01:00:15;;;;;;;28.48;11.43;;;18.70;83.10;;;;;;5080699;28;20111;-36
2021/12/30 01:02:42;;;;;;;32.10;12.35;;;18.70;83.10;;;;;;5100886;28;20032;-41
2021/12/30 01:05:09;;;;;;;29.63;12.75;;;18.70;83.10;;;;;;5088825;28;20024;-41
2021/12/30 01:07:35;;;;;;;24.83;11.50;;;18.70;83.20;;;;;;5101304;28;20016;-38
2021/12/30 01:10:01;;;;;;;25.77;11.13;;;18.70;83.20;;;;;;5088623;28;20028;-41
2021/12/30 01:12:28;;;;;;;32.97;13.27;;;18.70;83.10;;;;;;5097105;28;20072;-39
2021/12/30 01:14:53;;;;;;;31.23;11.63;;;18.60;83.20;;;;;;5107343;28;20028;-38
2021/12/30 01:17:26;;;;;;;23.73;10.90;;;18.70;83.10;;;;;;5097863;28;20486;-41
2021/12/30 01:19:52;;;;;;;25.52;12.75;;;18.60;83.20;;;;;;5106467;28;20031;-38
2021/12/30 01:22:26;;;;;;;31.48;12.60;;;18.60;83.20;;;;;;5101265;28;20415;-38
2021/12/30 01:24:53;;;;;;;24.85;11.63;;;18.60;83.10;;;;;;5097119;28;20108;-40
2021/12/30 01:27:19;;;;;;;27.52;11.18;;;18.60;83.10;;;;;;5094380;28;20020;-37
2021/12/30 01:29:46;;;;;;;22.35;10.52;;;18.60;83.20;;;;;;5095091;28;20028;-37
2021/12/30 01:32:13;;;;;;;27.60;11.43;;;18.50;83.40;;;;;;5091939;28;20024;-36
2021/12/30 01:34:38;;;;;;;23.48;10.73;;;18.60;83.30;;;;;;5097395;28;20124;-39
2021/12/30 01:37:05;;;;;;;22.58;10.48;;;18.50;83.30;;;;;;5088989;28;20494;-31
2021/12/30 01:39:33;;;;;;;28.63;11.40;;;18.50;83.50;;;;;;5079704;28;20016;-41
2021/12/30 01:42:00;;;;;;;22.10;11.07;;;18.50;83.30;;;;;;5089729;28;20028;-41
2021/12/30 01:44:28;;;;;;;25.83;11.45;;;18.60;83.30;;;;;;5097001;28;20027;-39
2021/12/30 01:46:55;;;;;;;24.48;10.32;;;18.50;83.20;;;;;;5107956;28;20039;-40
2021/12/30 01:49:21;;;;;;;21.38;9.95;;;18.60;83.00;;;;;;5096499;28;20035;-39
2021/12/30 01:51:48;;;;;;;24.33;10.95;;;18.60;83.10;;;;;;5099302;28;20020;-36
2021/12/30 01:54:14;;;;;;;23.50;9.85;;;18.50;83.40;;;;;;5098197;28;20024;-38
2021/12/30 01:56:40;;;;;;;24.48;11.07;;;18.50;83.10;;;;;;5067324;28;20048;-37
2021/12/30 01:59:06;;;;;;;23.08;9.73;;;18.50;83.50;;;;;;5096326;28;20030;-41
2021/12/30 02:01:32;;;;;;;25.15;9.93;;;18.50;83.40;;;;;;5088317;28;20494;-35
2021/12/30 02:03:58;;;;;;;25.13;10.50;;;18.50;83.60;;;;;;5097919;28;20172;-33
2021/12/30 02:06:23;;;;;;;22.52;9.65;;;18.50;83.40;;;;;;5106376;28;20488;-34
2021/12/30 02:08:51;;;;;;;21.55;9.30;;;18.50;83.40;;;;;;5100502;28;20020;-41
2021/12/30 02:11:18;;;;;;;20.98;8.60;;;18.50;83.10;;;;;;5102761;28;20036;-34
2021/12/30 02:13:45;;;;;;;22.38;10.05;;;18.50;83.10;;;;;;5092252;28;20482;-42
2021/12/30 02:16:11;;;;;;;21.67;10.38;;;18.50;83.20;;;;;;5094896;28;20027;-38
2021/12/30 02:18:37;;;;;;;23.33;9.50;;;18.50;83.20;;;;;;5090255;28;20024;-37
2021/12/30 02:21:03;;;;;;;23.02;9.45;;;18.50;83.00;;;;;;5097527;28;20032;-38
2021/12/30 02:23:32;;;;;;;23.77;9.80;;;18.50;83.10;;;;;;5088435;28;20088;-40
2021/12/30 02:26:04;;;;;;;21.38;9.98;;;18.50;83.60;;;;;;5099180;28;20115;-39
2021/12/30 02:28:33;;;;;;;22.48;8.70;;;18.50;83.70;;;;;;5086940;28;20035;-40
2021/12/30 02:31:01;;;;;;;25.75;9.40;;;18.50;83.40;;;;;;5096326;28;20023;-41
2021/12/30 02:33:28;;;;;;;23.85;8.93;;;18.50;83.50;;;;;;5109719;28;20028;-35
2021/12/30 02:35:54;;;;;;;23.50;10.85;;;18.50;83.40;;;;;;5098238;28;20643;-41
2021/12/30 02:38:21;;;;;;;22.55;9.15;;;18.50;83.40;;;;;;5110538;28;20426;-39
2021/12/30 02:40:50;;;;;;;19.00;8.55;;;18.50;83.30;;;;;;5096510;28;20803;-38
2021/12/30 02:43:19;;;;;;;24.13;8.70;;;18.50;83.20;;;;;;5110322;28;20038;-41
2021/12/30 02:45:45;;;;;;;21.38;9.13;;;18.50;83.20;;;;;;5100176;28;20031;-41
2021/12/30 02:48:17;;;;;;;23.85;9.10;;;18.50;83.20;;;;;;5089305;28;20020;-38
2021/12/30 02:50:45;;;;;;;17.10;8.02;;;18.50;83.30;;;;;;5101209;28;20012;-38
2021/12/30 02:53:11;;;;;;;21.05;8.95;;;18.50;83.40;;;;;;5090272;28;20535;-40
2021/12/30 02:55:37;;;;;;;20.00;9.55;;;18.50;83.50;;;;;;5094414;28;20011;-41
2021/12/30 02:58:03;;;;;;;24.38;9.27;;;18.50;83.30;;;;;;5102772;28;20051;-37
2021/12/30 03:00:29;;;;;;;20.13;8.43;;;18.50;83.30;;;;;;5103296;28;20023;-41
2021/12/30 03:02:56;;;;;;;20.13;8.93;;;18.40;83.30;;;;;;5079793;28;20042;-38
2021/12/30 03:05:24;;;;;;;19.17;8.77;;;18.50;83.30;;;;;;5081098;28;20489;-39
2021/12/30 03:07:50;;;;;;;19.60;8.55;;;18.50;83.30;;;;;;5098303;28;20032;-40
2021/12/30 03:10:20;;;;;;;18.60;8.20;;;18.50;83.20;;;;;;5106694;28;20027;-38
2021/12/30 03:12:51;;;;;;;17.35;8.27;;;18.40;83.50;;;;;;5098080;28;20482;-38
2021/12/30 03:15:17;;;;;;;16.98;7.90;;;18.40;83.30;;;;;;5090621;28;20057;-41
2021/12/30 03:17:43;;;;;;;21.13;9.50;;;18.50;83.30;;;;;;5100029;28;20442;-39
2021/12/30 03:20:09;;;;;;;19.83;9.10;;;18.40;83.30;;;;;;5089911;28;20028;-38
2021/12/30 03:22:40;;;;;;;19.05;8.30;;;18.50;83.30;;;;;;5098084;28;20016;-41
2021/12/30 03:25:08;;;;;;;20.10;7.68;;;18.40;83.30;;;;;;5109163;28;20104;-39
2021/12/30 03:27:34;;;;;;;19.08;8.18;;;18.40;83.40;;;;;;5086697;28;20479;-38
2021/12/30 03:30:04;;;;;;;17.27;7.95;;;18.40;83.30;;;;;;5090471;28;20068;-41
2021/12/30 03:32:30;;;;;;;17.40;7.70;;;18.40;83.30;;;;;;5094715;28;20052;-38
2021/12/30 03:34:55;;;;;;;19.42;8.23;;;18.40;83.20;;;;;;5108674;28;20066;-36
2021/12/30 03:37:21;;;;;;;19.90;8.30;;;18.40;83.30;;;;;;5103821;28;20024;-39
2021/12/30 03:39:48;;;;;;;18.45;7.47;;;18.40;83.30;;;;;;5089388;28;21106;-39
2021/12/30 03:42:14;;;;;;;20.20;7.75;;;18.40;83.20;;;;;;5097654;28;20044;-39
2021/12/30 03:44:40;;;;;;;18.35;8.55;;;18.40;83.30;;;;;;5090217;28;20381;-38
2021/12/30 03:47:07;;;;;;;17.33;7.68;;;18.40;83.30;;;;;;5095689;28;20020;-40
2021/12/30 03:49:32;;;;;;;18.42;7.82;;;18.40;83.20;;;;;;5094635;28;20028;-40
2021/12/30 03:51:58;;;;;;;18.25;7.30;;;18.40;83.10;;;;;;5090555;28;20653;-40
2021/12/30 03:54:24;;;;;;;16.40;7.28;;;18.40;83.20;;;;;;5100363;28;20043;-41
2021/12/30 03:56:49;;;;;;;19.13;7.80;;;18.40;83.20;;;;;;5104831;28;20121;-38
2021/12/30 03:59:15;;;;;;;15.60;7.38;;;18.40;83.20;;;;;;5099138;28;20020;-39
2021/12/30 04:01:41;;;;;;;20.90;8.40;;;18.40;83.00;;;;;;5090175;28;20020;-40
2021/12/30 04:04:06;;;;;;;17.67;7.53;;;18.40;83.10;;;;;;5100180;28;20081;-38
2021/12/30 04:06:32;;;;;;;18.65;7.50;;;18.30;83.10;;;;;;5088727;28;20017;-38
2021/12/30 04:08:59;;;;;;;17.38;7.75;;;18.40;83.10;;;;;;5096997;28;20028;-39
2021/12/30 04:11:26;;;;;;;18.40;8.63;;;18.40;83.10;;;;;;5089084;28;20051;-41
2021/12/30 04:13:52;;;;;;;15.10;6.95;;;18.40;83.10;;;;;;5103249;28;20019;-39
2021/12/30 04:16:19;;;;;;;16.50;7.70;;;18.30;83.10;;;;;;5108349;28;20355;-40
2021/12/30 04:18:48;;;;;;;17.10;8.05;;;18.30;83.00;;;;;;5106164;28;20027;-35
2021/12/30 04:21:17;;;;;;;18.02;7.65;;;18.30;83.00;;;;;;5067742;28;20449;-34
2021/12/30 04:23:44;;;;;;;13.55;7.15;;;18.30;83.10;;;;;;5095837;28;20067;-37
2021/12/30 04:26:10;;;;;;;16.42;7.43;;;18.40;83.70;;;;;;5090161;28;20043;-41
2021/12/30 04:28:35;;;;;;;15.25;6.75;;;18.30;83.00;;;;;;5093906;28;20466;-42
2021/12/30 04:31:01;;;;;;;15.40;6.78;;;18.30;83.10;;;;;;5104247;28;20016;-39
2021/12/30 04:33:26;;;;;;;15.40;6.70;;;18.30;83.30;;;;;;5103024;28;20039;-39
2021/12/30 04:35:56;;;;;;;14.27;6.78;;;18.30;83.30;;;;;;5101713;28;20069;-40
2021/12/30 04:38:26;;;;;;;19.27;7.57;;;18.30;83.20;;;;;;5082566;28;20115;-40
2021/12/30 04:40:52;;;;;;;17.95;7.75;;;18.30;83.10;;;;;;5097353;28;20047;-40
2021/12/30 04:43:18;;;;;;;14.48;6.70;;;18.30;83.10;;;;;;5074246;28;20044;-36
2021/12/30 04:45:45;;;;;;;16.17;6.97;;;18.30;83.70;;;;;;5095548;28;20021;-40
2021/12/30 04:48:11;;;;;;;16.60;6.90;;;18.30;83.00;;;;;;5084084;28;20065;-35
2021/12/30 04:50:37;;;;;;;14.50;6.00;;;18.30;83.30;;;;;;5093120;28;20016;-38
2021/12/30 04:53:03;;;;;;;18.08;7.38;;;18.30;83.20;;;;;;5084060;28;20020;-35
2021/12/30 04:55:29;;;;;;;16.30;6.85;;;18.20;83.00;;;;;;5090665;28;20016;-38
2021/12/30 04:57:54;;;;;;;12.40;6.43;;;18.30;83.20;;;;;;5103998;28;20797;-41
2021/12/30 05:00:20;;;;;;;16.75;6.60;;;18.30;83.10;;;;;;5099918;28;20416;-35
2021/12/30 05:03:08;;;;;;;12.55;5.75;;;18.30;83.10;;;;;;5103744;28;20039;-36
2021/12/30 05:05:37;;;;;;;14.90;6.45;;;18.30;83.20;;;;;;5094934;28;20057;-40
2021/12/30 05:08:03;;;;;;;14.23;6.37;;;18.20;83.00;;;;;;5084046;28;20032;-40
2021/12/30 05:10:29;;;;;;;13.55;6.57;;;18.20;83.00;;;;;;5095139;28;20269;-41
2021/12/30 05:13:01;;;;;;;22.38;6.45;;;18.20;83.40;;;;;;5091220;28;20156;-41
2021/12/30 05:15:27;;;;;;;15.30;6.78;;;18.20;83.30;;;;;;5102114;28;20433;-39
2021/12/30 05:17:53;;;;;;;13.65;5.35;;;18.30;83.10;;;;;;5091109;28;20071;-43
2021/12/30 05:20:19;;;;;;;14.32;6.25;;;18.30;83.30;;;;;;5087936;28;20055;-41
2021/12/30 05:22:44;;;;;;;14.23;6.18;;;18.30;83.10;;;;;;5095932;28;20112;-42
2021/12/30 05:25:12;;;;;;;12.48;5.93;;;18.30;83.80;;;;;;5091329;28;20051;-39
2021/12/30 05:27:39;;;;;;;13.57;6.43;;;18.30;83.00;;;;;;5071688;28;20027;-38
2021/12/30 05:30:07;;;;;;;12.63;6.00;;;18.30;83.00;;;;;;5072830;28;20118;-38
2021/12/30 05:32:34;;;;;;;13.70;6.32;;;18.30;82.80;;;;;;5075724;28;20044;-40
2021/12/30 05:35:01;;;;;;;15.20;6.63;;;18.20;82.90;;;;;;5078797;28;20142;-41
2021/12/30 05:37:26;;;;;;;11.73;5.93;;;18.20;82.90;;;;;;5088332;28;20016;-33
2021/12/30 05:39:52;;;;;;;13.63;6.07;;;18.20;82.80;;;;;;5084365;28;20028;-37
2021/12/30 05:42:18;;;;;;;12.32;5.50;;;18.30;82.80;;;;;;5090210;28;20032;-38
2021/12/30 05:44:43;;;;;;;13.30;6.18;;;18.30;82.60;;;;;;5078883;28;20367;-40
2021/12/30 05:47:09;;;;;;;13.85;5.65;;;18.30;82.60;;;;;;5087106;28;20036;-40
2021/12/30 05:49:34;;;;;;;10.20;5.68;;;18.30;82.60;;;;;;5076915;28;20016;-42
2021/12/30 05:52:00;;;;;;;11.13;5.72;;;18.20;82.70;;;;;;5090894;28;20447;-37
2021/12/30 05:54:26;;;;;;;10.63;5.55;;;18.30;83.20;;;;;;5083338;28;20031;-39
2021/12/30 05:56:51;;;;;;;10.05;5.25;;;18.20;82.50;;;;;;5085830;28;20075;-38
2021/12/30 05:59:17;;;;;;;11.63;5.53;;;18.20;82.50;;;;;;5079676;28;20026;-42
2021/12/30 06:01:42;;;;;;;11.20;5.40;;;18.20;82.50;;;;;;5086000;28;20419;-38
2021/12/30 06:04:09;;;;;;;12.35;5.63;;;18.20;82.40;;;;;;5083873;28;20032;-41
2021/12/30 06:06:34;;;;;;;11.15;5.35;;;18.20;82.40;;;;;;5086986;28;20028;-38
2021/12/30 06:09:00;;;;;;;10.73;5.00;;;18.00;83.10;;;;;;5079336;28;20577;-39
2021/12/30 06:11:25;;;;;;;10.88;5.05;;;18.00;83.10;;;;;;5084351;28;20032;-39
2021/12/30 06:13:51;;;;;;;11.82;4.72;;;18.10;82.60;;;;;;5084507;28;20107;-42
2021/12/30 06:16:16;;;;;;;9.85;4.55;;;18.10;82.50;;;;;;5080934;28;20020;-48
2021/12/30 06:18:42;;;;;;;9.07;4.85;;;18.10;82.40;;;;;;5082668;28;20021;-34
2021/12/30 06:21:08;;;;;;;8.90;4.47;;;18.10;82.50;;;;;;5077425;28;20083;-40
2021/12/30 06:23:33;;;;;;;10.50;4.47;;;18.10;82.50;;;;;;5089149;28;20114;-38
2021/12/30 06:26:00;;;;;;;11.18;4.60;;;18.10;82.40;;;;;;5077672;28;20052;-39
2021/12/30 06:28:25;;;;;;;8.63;4.32;;;18.10;82.50;;;;;;5091392;28;20020;-38
2021/12/30 06:30:51;;;;;;;10.15;4.65;;;18.10;82.50;;;;;;5100483;28;20017;-39
2021/12/30 06:33:17;;;;;;;10.77;4.13;;;18.10;82.40;;;;;;5087093;28;20410;-38
2021/12/30 06:35:42;;;;;;;15.25;5.50;;;18.10;82.50;;;;;;5068738;28;20137;-40
2021/12/30 06:38:08;;;;;;;10.82;4.90;;;18.10;82.50;;;;;;5096650;28;20141;-37
2021/12/30 06:40:33;;;;;;;12.98;4.63;;;18.10;82.50;;;;;;5076177;28;20070;-40
2021/12/30 06:42:59;;;;;;;13.98;4.93;;;18.20;82.60;;;;;;5088307;28;20031;-38
2021/12/30 06:45:24;;;;;;;11.30;4.22;;;18.20;82.50;;;;;;5100908;28;20032;-39
2021/12/30 06:47:50;;;;;;;10.65;4.75;;;18.20;82.50;;;;;;5092505;28;20020;-37
2021/12/30 06:50:17;;;;;;;14.13;4.35;;;18.20;82.30;;;;;;5082014;28;20083;-41
2021/12/30 06:52:46;;;;;;;9.85;4.35;;;18.20;82.50;;;;;;5084835;28;20023;-41
2021/12/30 06:55:12;;;;;;;15.30;5.10;;;18.20;82.60;;;;;;5086975;28;20218;-40
2021/12/30 06:57:39;;;;;;;7.68;3.60;;;18.10;82.60;;;;;;5081433;28;20493;-40
2021/12/30 07:00:09;;;;;;;10.65;4.47;;;18.20;82.50;;;;;;5078310;28;20584;-41
2021/12/30 07:02:35;;;;;;;8.30;3.70;;;18.20;82.50;;;;;;5081341;28;20465;-41
2021/12/30 07:05:02;;;;;;;8.88;4.22;;;18.20;82.50;;;;;;5085380;28;20020;-39
2021/12/30 07:07:28;;;;;;;8.80;4.00;;;18.20;82.50;;;;;;5109480;28;20595;-39
2021/12/30 07:09:53;;;;;;;7.55;3.28;;;18.20;82.40;;;;;;5087832;28;20110;-41
2021/12/30 07:12:19;;;;;;;8.23;3.80;;;18.20;82.50;;;;;;5074061;28;20455;-38
2021/12/30 07:14:44;;;;;;;8.85;3.70;;;18.20;82.50;;;;;;5090885;28;20031;-38
2021/12/30 07:17:10;;;;;;;8.07;3.35;;;18.20;82.40;;;;;;5103284;28;20125;-39
2021/12/30 07:19:36;;;;;;;10.15;4.20;;;18.20;82.70;;;;;;5090285;28;20024;-42
2021/12/30 07:22:01;;;;;;;9.98;3.70;;;18.20;82.70;;;;;;5107499;28;20031;-41
2021/12/30 07:24:27;;;;;;;7.35;2.90;;;18.20;82.70;;;;;;5097408;28;20047;-40
2021/12/30 07:26:53;;;;;;;9.20;3.28;;;18.20;82.90;;;;;;5093272;28;20112;-41
2021/12/30 07:29:19;;;;;;;8.05;3.75;;;18.20;82.80;;;;;;5087024;28;20026;-38
2021/12/30 07:31:44;;;;;;;8.07;3.17;;;18.20;83.10;;;;;;5081937;28;20475;-36
2021/12/30 07:34:10;;;;;;;8.18;4.10;;;18.30;83.10;;;;;;5085940;28;20386;-36
2021/12/30 07:36:36;;;;;;;7.90;3.35;;;18.20;83.30;;;;;;5098790;28;20023;-41
2021/12/30 07:39:02;;;;;;;8.35;3.85;;;18.30;83.20;;;;;;5086852;28;20027;-39
2021/12/30 07:41:27;;;;;;;7.05;3.33;;;18.30;83.50;;;;;;5097032;28;20098;-44
2021/12/30 07:43:53;;;;;;;8.65;3.38;;;18.40;83.90;;;;;;5071162;28;20040;-40
2021/12/30 07:46:18;;;;;;;16.17;3.50;;;18.30;84.10;;;;;;5089810;28;20026;-38
2021/12/30 07:48:44;;;;;;;11.25;3.50;;;18.30;84.10;;;;;;5109540;28;20027;-37
2021/12/30 07:51:10;;;;;;;8.52;2.90;;;18.30;84.20;;;;;;5096239;28;20430;-39
2021/12/30 07:53:37;;;;;;;7.75;3.35;;;18.30;84.20;;;;;;5092586;28;20028;-40
2021/12/30 07:56:02;;;;;;;10.90;4.00;;;18.30;84.30;;;;;;5100749;28;20027;-44
2021/12/30 07:58:29;;;;;;;11.35;3.50;;;18.40;84.30;;;;;;5085328;28;20046;-38
2021/12/30 08:00:55;;;;;;;7.97;3.45;;;18.30;84.30;;;;;;5088938;28;20084;-41
2021/12/30 08:03:20;;;;;;;8.02;3.40;;;18.30;84.20;;;;;;5088424;28;20039;-38
2021/12/30 08:05:46;;;;;;;9.07;3.58;;;18.30;84.30;;;;;;5090193;28;20127;-38
2021/12/30 08:08:12;;;;;;;14.68;3.38;;;18.30;84.10;;;;;;5088701;28;20016;-39
2021/12/30 08:10:38;;;;;;;6.60;3.00;;;18.30;84.30;;;;;;5084536;28;20020;-39
2021/12/30 08:13:03;;;;;;;11.07;3.50;;;18.30;84.10;;;;;;5076027;28;20483;-35
2021/12/30 08:15:29;;;;;;;7.80;3.95;;;18.30;84.00;;;;;;5084470;28;20078;-41
2021/12/30 08:17:55;;;;;;;7.00;3.35;;;18.30;83.60;;;;;;5099278;28;20078;-38
2021/12/30 08:20:22;;;;;;;10.52;3.38;;;18.30;83.90;;;;;;5104007;28;20438;-36
2021/12/30 08:22:50;;;;;;;6.85;3.30;;;18.30;83.70;;;;;;5098176;28;20016;-39
2021/12/30 08:25:16;;;;;;;7.40;3.08;;;18.30;83.80;;;;;;5100317;28;20125;-40
2021/12/30 08:27:42;;;;;;;8.80;3.72;;;18.30;83.90;;;;;;5090458;28;20024;-38
2021/12/30 08:30:12;;;;;;;9.60;3.83;;;18.10;84.30;;;;;;5075915;28;20028;-35
2021/12/30 08:32:38;;;;;;;9.63;3.60;;;18.20;84.10;;;;;;5086812;28;20401;-38
2021/12/30 08:35:04;;;;;;;8.48;3.67;;;18.20;84.30;;;;;;5088161;28;20115;-40
2021/12/30 08:37:30;;;;;;;7.53;3.67;;;18.20;84.30;;;;;;5100713;28;20473;-38
2021/12/30 08:39:56;;;;;;;8.05;3.95;;;18.30;83.80;;;;;;5108644;28;20092;-35
2021/12/30 08:42:29;;;;;;;9.93;3.67;;;18.30;84.00;;;;;;5099501;28;20072;-35
2021/12/30 08:44:57;;;;;;;57.70;52.95;;;18.30;83.90;;;;;;5088878;28;20111;-39
2021/12/30 08:47:25;;;;;;;29.88;27.10;;;18.40;83.80;;;;;;5099973;28;20031;-39
2021/12/30 08:49:50;;;;;;;15.93;14.35;;;18.40;84.10;;;;;;5094944;28;20116;-38
2021/12/30 08:52:19;;;;;;;20.27;18.13;;;18.40;83.80;;;;;;5091192;28;20074;-38
2021/12/30 08:54:47;;;;;;;19.67;17.27;;;18.40;84.40;;;;;;5082141;28;20074;-38
2021/12/30 08:57:14;;;;;;;17.63;15.73;;;18.40;84.80;;;;;;5095082;28;20391;-38
2021/12/30 08:59:40;;;;;;;17.10;15.60;;;18.40;85.40;;;;;;5107009;28;20024;-40
2021/12/30 09:02:07;;;;;;;16.83;14.27;;;18.40;85.60;;;;;;5086018;28;20043;-34
2021/12/30 09:04:33;;;;;;;13.93;12.35;;;18.40;85.80;;;;;;5104796;28;20081;-38
2021/12/30 09:06:59;;;;;;;14.77;13.27;;;18.40;86.00;;;;;;5096668;28;20020;-40
2021/12/30 09:09:25;;;;;;;14.38;12.68;;;18.40;86.10;;;;;;5099894;28;20027;-38
2021/12/30 09:11:51;;;;;;;16.42;11.82;;;18.40;86.00;;;;;;5085714;28;20524;-38
2021/12/30 09:14:17;;;;;;;13.32;10.63;;;18.40;86.30;;;;;;5088441;28;20024;-37
2021/12/30 09:16:43;;;;;;;14.50;11.00;;;18.40;86.40;;;;;;5086418;28;20085;-41
2021/12/30 09:19:10;;;;;;;11.90;9.68;;;18.40;86.50;;;;;;5104332;28;20081;-41
2021/12/30 09:21:39;;;;;;;14.77;9.50;;;18.40;86.30;;;;;;5093493;28;20494;-39
2021/12/30 09:24:06;;;;;;;13.37;9.33;;;18.40;86.20;;;;;;5098270;27;20791;-31
2021/12/30 09:26:33;;;;;;;14.27;8.70;;;18.40;86.10;;;;;;5098253;28;20827;-35
2021/12/30 09:28:58;;;;;;;11.38;8.18;;;18.40;86.20;;;;;;5097236;28;20443;-41
2021/12/30 09:31:24;;;;;;;14.20;8.43;;;18.50;86.20;;;;;;5072515;28;20032;-37
2021/12/30 09:33:50;;;;;;;13.00;7.97;;;18.50;86.20;;;;;;5085902;28;20016;-40
2021/12/30 09:36:15;;;;;;;16.83;6.55;;;18.50;86.10;;;;;;5102490;28;20047;-38
2021/12/30 09:38:41;;;;;;;10.43;7.15;;;18.50;86.30;;;;;;5090260;28;20034;-37
2021/12/30 09:41:06;;;;;;;12.20;6.60;;;18.50;86.00;;;;;;5095595;28;20028;-40
2021/12/30 09:43:34;;;;;;;12.30;7.30;;;18.40;86.20;;;;;;5090033;28;20427;-41
2021/12/30 09:45:59;;;;;;;12.50;5.93;;;18.40;86.60;;;;;;5078092;28;20024;-40
2021/12/30 09:48:25;;;;;;;10.32;6.82;;;18.50;86.10;;;;;;5107832;28;20468;-39
2021/12/30 09:50:53;;;;;;;9.13;6.30;;;18.40;86.20;;;;;;5098951;28;20027;-35
2021/12/30 09:53:25;;;;;;;9.98;5.38;;;18.40;86.40;;;;;;5073717;28;20020;-37
2021/12/30 09:55:55;;;;;;;10.98;4.95;;;18.40;86.40;;;;;;5098773;28;20047;-38
2021/12/30 09:58:21;;;;;;;8.88;4.70;;;18.50;86.50;;;;;;5087649;28;20478;-34
2021/12/30 10:00:47;;;;;;;10.95;4.80;;;18.50;86.40;;;;;;5085226;28;20015;-35
2021/12/30 10:03:12;;;;;;;13.00;4.85;;;18.40;86.40;;;;;;5083030;28;20120;-38
2021/12/30 10:05:40;;;;;;;11.88;4.75;;;18.40;86.60;;;;;;5101627;28;20031;-38
2021/12/30 10:08:40;;;;;;;7.45;4.28;;;18.40;86.60;;;;;;5078721;28;20730;-38
2021/12/30 10:11:12;;;;;;;8.63;4.30;;;18.50;86.70;;;;;;5078770;28;20043;-41
2021/12/30 10:13:40;;;;;;;7.22;4.47;;;18.50;86.80;;;;;;5098326;28;20023;-40
2021/12/30 10:16:12;;;;;;;13.48;4.32;;;18.40;86.80;;;;;;5095697;28;20018;-42
2021/12/30 10:18:55;;;;;;;10.95;4.57;;;18.40;86.90;;;;;;5092633;28;20490;-31
2021/12/30 10:21:38;;;;;;;10.88;4.00;;;18.50;86.90;;;;;;5098960;28;20471;-41
2021/12/30 10:24:07;;;;;;;12.00;4.40;;;18.50;86.90;;;;;;5077449;28;20881;-40
2021/12/30 10:26:58;;;;;;;5.55;3.25;;;18.50;86.90;;;;;;5090462;28;20024;-38
2021/12/30 10:29:27;;;;;;;7.70;3.28;;;18.40;86.70;;;;;;5091604;28;20101;-40
2021/12/30 10:31:54;;;;;;;10.77;3.95;;;18.40;87.10;;;;;;5092834;28;20024;-38
2021/12/30 10:34:19;;;;;;;6.85;3.78;;;18.50;87.10;;;;;;5089639;28;20122;-42
2021/12/30 10:36:50;;;;;;;8.93;3.55;;;18.40;87.10;;;;;;5083503;28;20123;-40
2021/12/30 10:39:26;;;;;;;9.27;3.58;;;18.40;87.10;;;;;;5075206;27;20638;-40
2021/12/30 10:42:05;;;;;;;10.10;3.58;;;18.40;87.00;;;;;;5091219;28;20021;-40
2021/12/30 10:44:49;;;;;;;9.18;3.83;;;18.50;87.20;;;;;;5068989;28;20039;-38
2021/12/30 10:47:15;;;;;;;12.85;3.35;;;18.40;87.00;;;;;;5096712;28;20027;-36
2021/12/30 10:49:41;;;;;;;6.07;3.20;;;18.50;87.00;;;;;;5091820;28;20016;-40
2021/12/30 10:52:07;;;;;;;8.80;3.25;;;18.50;87.00;;;;;;5084676;28;20024;-36
2021/12/30 10:54:36;;;;;;;7.65;3.03;;;18.50;86.60;;;;;;5092406;28;20020;-39
2021/12/30 10:57:07;;;;;;;7.50;3.20;;;18.60;86.70;;;;;;5100677;28;20538;-39
2021/12/30 10:59:42;;;;;;;7.25;3.42;;;18.50;86.50;;;;;;5075997;28;20047;-38
2021/12/30 11:02:15;;;;;;;9.70;3.35;;;18.60;86.70;;;;;;5100545;28;20047;-40
2021/12/30 11:04:46;;;;;;;5.80;2.63;;;18.60;86.40;;;;;;5082867;28;20157;-39
2021/12/30 11:07:12;;;;;;;;;;;18.60;86.30;;;;;;5093426;28;20027;-39
2021/12/30 11:09:53;;;;;;;8.38;2.95;;;18.60;86.20;;;;;;5087820;28;20289;-36
2021/12/30 11:12:30;;;;;;;10.23;3.60;;;18.60;86.10;;;;;;5090804;28;20523;-37
2021/12/30 11:14:57;;;;;;;7.53;2.80;;;18.70;85.80;;;;;;5088883;28;20028;-41
2021/12/30 11:17:32;;;;;;;5.07;2.55;;;18.70;85.40;;;;;;5075257;28;20029;-37
2021/12/30 11:20:01;;;;;;;8.77;2.85;;;18.70;85.20;;;;;;5071743;28;20137;-39
2021/12/30 11:22:29;;;;;;;7.15;2.80;;;18.80;85.20;;;;;;5075169;28;20634;-36
2021/12/30 11:24:58;;;;;;;9.65;2.85;;;18.70;85.20;;;;;;5076945;28;20046;-43
2021/12/30 11:27:25;;;;;;;9.73;3.17;;;18.80;84.90;;;;;;5074658;28;20017;-36
2021/12/30 11:29:54;;;;;;;14.35;3.20;;;18.90;84.70;;;;;;5075644;28;20039;-41
2021/12/30 11:32:34;;;;;;;10.02;2.40;;;18.90;84.40;;;;;;5073540;28;20388;-42
2021/12/30 11:35:03;;;;;;;8.98;3.10;;;19.00;84.20;;;;;;5073336;28;20016;-40
2021/12/30 11:37:29;;;;;;;9.65;3.65;;;19.00;84.00;;;;;;5073831;28;20031;-41
2021/12/30 11:39:58;;;;;;;11.40;3.17;;;19.00;84.00;;;;;;5070965;28;20394;-41
2021/12/30 11:42:28;;;;;;;7.75;2.53;;;19.00;84.20;;;;;;5078497;28;20051;-40
2021/12/30 11:45:00;;;;;;;8.45;2.13;;;19.00;84.10;;;;;;5072724;28;20689;-31
2021/12/30 11:47:35;;;;;;;7.80;2.63;;;19.10;84.00;;;;;;5074891;28;20024;-31
2021/12/30 11:50:10;;;;;;;8.20;2.58;;;19.10;84.10;;;;;;5075592;28;20074;-31
2021/12/30 11:52:50;;;;;;;7.72;2.58;;;19.10;83.80;;;;;;5075610;28;20470;-32
2021/12/30 11:55:41;;;;;;;8.15;2.92;;;19.20;83.90;;;;;;5074800;28;20017;-31
2021/12/30 12:01:13;;;;;;;8.73;2.72;;;19.20;83.90;;;;;;5073410;28;20320;-40
2021/12/30 12:04:20;;;;;;;6.13;2.60;;;19.20;84.00;;;;;;5072346;28;20138;-41
2021/12/30 12:06:56;;;;;;;11.05;3.10;;;19.20;84.00;;;;;;5049407;28;20052;-39
2021/12/30 12:09:22;;;;;;;8.07;2.40;;;19.30;84.00;;;;;;5076046;28;20158;-42
2021/12/30 12:11:55;;;;;;;7.88;3.20;;;19.30;84.00;;;;;;5074451;28;20056;-38
2021/12/30 12:14:45;;;;;;;9.27;2.40;;;19.30;84.10;;;;;;5076053;28;20054;-38
2021/12/30 12:17:44;;;;;;;7.67;2.20;;;19.30;84.10;;;;;;5067827;28;20089;-44
2021/12/30 12:20:20;;;;;;;8.70;2.63;;;19.30;84.20;;;;;;5049718;28;20313;-42
2021/12/30 12:22:45;;;;;;;7.07;2.28;;;19.20;84.40;;;;;;5075121;28;20033;-42
2021/12/30 12:25:26;;;;;;;7.60;2.08;;;19.20;84.70;;;;;;5080884;28;20103;-38
2021/12/30 12:27:55;;;;;;;8.98;2.30;;;19.20;84.40;;;;;;5077561;28;20044;-39
2021/12/30 12:30:26;;;;;;;6.65;2.70;;;19.20;84.60;;;;;;5079157;28;20027;-40
2021/12/30 12:32:51;;;;;;;;;;;19.30;84.60;;;;;;5079089;28;20028;-38
2021/12/30 12:35:17;;;;;;;7.13;2.65;;;19.30;84.60;;;;;;5081715;28;19908;-41
2021/12/30 12:37:44;;;;;;;6.38;2.63;;;19.30;84.70;;;;;;5080532;28;20127;-39
2021/12/30 12:40:16;;;;;;;8.32;2.50;;;19.30;84.90;;;;;;5075142;28;20089;-39
2021/12/30 12:42:50;;;;;;;11.13;3.00;;;19.30;84.90;;;;;;5075413;28;20106;-39
2021/12/30 12:45:31;;;;;;;8.80;3.00;;;19.30;84.80;;;;;;5076100;28;20463;-39